Terminal Aerodrome Forecast
Issued by NWS Mt. Holly, NJ

Home | Current Version | Previous Version | Text Only | Print | Product List | Glossary On
Versions: 1 2 3 4 5 6 7 8 9 10 11 12 13 14 15 16 17 18 19 20 21 22 23 24 25 26 27 28 29 30 31 32 33 34 35 36 37 38 39 40 41 42 43 44 45 46 47 48 49 50
000
FTUS41 KPHI 231138
TAFABE
TAF
KABE 231138Z 2312/2412 VRB04KT P6SM VCSH SCT015 BKN040
      TEMPO 2312/2315 6SM -SHRA BKN015 OVC040
     FM231800 VRB04KT P6SM OVC050
     FM232100 02005KT P6SM BKN070
     FM240800 VRB04KT P6SM SCT150=

USA.gov is the U.S. government's official web portal to all federal, state and local government web resources and services.